Aérodrome :
LOGIN :

S'inscrire | Disclaimer

   EN    FR    IT 

 










Légende :    VFR   VFR Marginal   IFR   IFR Intensif   IFR Très Intensif
Visi : 
Plafond : 
>= 8 km
>= 3000ft
5 à 8 km
1000 à 3000 ft
1500m à 5 km
500 à 1000 ft
800 à 1500m
200 à 500 ft
< 800m
< 200 ft
Symboles :   Orages  Brouillard  Fortes neiges  Fortes précipitations  Vent > 20 kt
SIGMETs :   Divers  Orages  Givrage  Turbulence  Onde Orograph.  Cendres Volcan.







- Altitude de l'aérodrome : 81 ft
- Code IATA : SCS
- Voir les cartes d'approche


EGPM - Scatsta

DERNIER METAR :
  • 252320Z AUTO 25009KT 9999 FEW017/// SCT034/// 07/05 Q1025

METARs EXPIRÉS :
  • 252250Z AUTO 24010KT 9999 SCT012/// BKN037/// 07/06 Q1025
  • 252220Z AUTO 23008KT 9999 FEW017/// BKN026/// 06/05 Q1025
  • 252150Z AUTO 24008KT 9999 SCT009/// SCT030/// BKN045/// 07/05 Q1025
  • 252120Z AUTO 24009KT 9999 FEW011/// BKN022/// OVC041/// 07/05 Q1026
  • 252050Z AUTO 26010KT 8000 -RA FEW001/// BKN011/// BKN024/// 07/05 Q1026 RERA

Prévision TAF périmée.
Pas de NOTAMs connus pour ce terrain.



MET'MAP, la Météo Aéronautique d'un coup d'oeil ! - Copyright ORBIFLY Décembre 2007 - Disclaimer

ORBIFLY MET'MAP TEAM :

Programmation & Développement : Alexandra Zaïnal
Conception & Développement : Baudouin d'Aumeries
Co-Programmation & Développement : Marc-Olivier Méhu
Soutien technique & logistique : Manuel Goepfert

Contact : metmap@orbifly.com




SOURCES & CREDITS :

   NOAA